Terminal Aerodrome Forecast
Issued by NWS Goodland, KS

Home | Current Version | Previous Version | Text Only | Print | Product List | Glossary On
Versions: 1 2 3 4 5 6 7 8 9 10 11 12 13
623
FTUS43 KGLD 151140
TAFGLD
TAF
KGLD 151140Z 1512/1612 01017G25KT 5SM -SN OVC015
     FM151500 36018G26KT P6SM SCT040 BKN070
     FM151800 36019G28KT P6SM FEW045 SCT150
     FM160000 35010KT P6SM SKC
     FM160700 30007KT P6SM SKC=

USA.gov is the U.S. government's official web portal to all federal, state and local government web resources and services.